Time;durP1;ratioP1;P1;durP2;ratioP2;P2;SDS_P1;SDS_P2;PMS_P1;PMS_P2;Temp;Humidity;BMP_temperature;BMP_pressure;BME280_temperature;BME280_humidity;BME280_pressure;Samples;Min_cycle;Max_cycle;Signal;HPM_P1;HPM_P2
2022/12/04 00:01:44;;;;;;;22.03;15.30;;;3.30;96.70;;;;;;4989332;28;20202;-82
2022/12/04 00:04:10;;;;;;;19.73;14.17;;;3.30;96.90;;;;;;4990224;28;20210;-80
2022/12/04 00:06:36;;;;;;;22.33;14.60;;;3.40;97.10;;;;;;4989742;28;20233;-82
2022/12/04 00:09:02;;;;;;;20.30;14.90;;;3.30;97.20;;;;;;4988684;28;20187;-82
2022/12/04 00:11:31;;;;;;;22.50;14.43;;;3.30;97.20;;;;;;4989141;28;20187;-82
2022/12/04 00:13:58;;;;;;;20.77;14.80;;;3.40;97.60;;;;;;4990574;28;20203;-83
2022/12/04 00:16:26;;;;;;;20.43;14.77;;;3.40;97.40;;;;;;4993193;28;20195;-82
2022/12/04 00:18:53;;;;;;;23.87;15.23;;;3.40;97.30;;;;;;4989907;28;20282;-82
2022/12/04 00:21:20;;;;;;;21.93;15.80;;;3.30;98.20;;;;;;4987317;28;20195;-81
2022/12/04 00:23:46;;;;;;;23.43;16.10;;;3.40;98.70;;;;;;4988816;28;20207;-82
2022/12/04 00:26:18;;;;;;;21.13;16.63;;;3.40;98.00;;;;;;4976009;28;20244;-81
2022/12/04 00:28:44;;;;;;;21.43;15.43;;;3.50;97.60;;;;;;4987264;28;20340;-82
2022/12/04 00:31:14;;;;;;;22.47;16.20;;;3.60;97.30;;;;;;4987392;28;20194;-82
2022/12/04 00:33:40;;;;;;;22.57;16.83;;;3.60;96.90;;;;;;4980212;28;20299;-81
2022/12/04 00:36:09;;;;;;;20.37;14.77;;;3.60;96.80;;;;;;4984627;28;20201;-82
2022/12/04 00:38:35;;;;;;;23.13;16.67;;;3.60;97.50;;;;;;4987742;28;20183;-81
2022/12/04 00:41:01;;;;;;;22.83;14.87;;;3.60;97.90;;;;;;4986842;28;20669;-82
2022/12/04 00:43:28;;;;;;;24.90;15.97;;;3.60;97.40;;;;;;4984067;28;20199;-81
2022/12/04 00:45:54;;;;;;;22.73;15.73;;;3.60;97.00;;;;;;4987884;28;20203;-81
2022/12/04 00:48:20;;;;;;;21.33;15.17;;;3.60;97.10;;;;;;4985865;28;20183;-82
2022/12/04 00:50:46;;;;;;;23.73;16.93;;;3.60;97.60;;;;;;4987464;28;20193;-81
2022/12/04 00:53:12;;;;;;;23.53;16.63;;;3.70;97.50;;;;;;4987702;28;20375;-81
2022/12/04 00:55:39;;;;;;;25.10;17.77;;;3.60;97.50;;;;;;4987543;28;20215;-81
2022/12/04 00:58:06;;;;;;;20.83;15.13;;;3.50;97.90;;;;;;4987638;28;20801;-80
2022/12/04 01:00:34;;;;;;;22.50;16.13;;;3.60;97.50;;;;;;4988044;28;20183;-81
2022/12/04 01:02:59;;;;;;;21.53;16.13;;;3.60;97.60;;;;;;4987885;28;20203;-82
2022/12/04 01:05:25;;;;;;;20.07;15.40;;;3.60;97.50;;;;;;4987579;28;20214;-81
2022/12/04 01:07:52;;;;;;;20.37;15.37;;;3.60;96.90;;;;;;4988281;28;20203;-81
2022/12/04 01:10:18;;;;;;;24.40;16.00;;;3.60;97.10;;;;;;4988158;28;20210;-83
2022/12/04 01:12:44;;;;;;;23.00;16.27;;;3.70;95.90;;;;;;4991266;28;20199;-84
2022/12/04 01:15:10;;;;;;;19.33;14.93;;;3.70;95.90;;;;;;4999815;28;20199;-83
2022/12/04 01:17:36;;;;;;;22.17;15.63;;;3.60;96.20;;;;;;4999978;28;20182;-82
2022/12/04 01:20:03;;;;;;;24.03;16.70;;;3.60;96.30;;;;;;4999358;28;20183;-84
2022/12/04 01:22:28;;;;;;;22.40;15.80;;;3.60;96.80;;;;;;4998314;28;20225;-83
2022/12/04 01:24:55;;;;;;;22.00;15.50;;;3.60;97.00;;;;;;4989973;28;20657;-80
2022/12/04 01:27:21;;;;;;;22.53;16.20;;;3.60;98.20;;;;;;4986525;28;20225;-82
2022/12/04 01:29:47;;;;;;;24.30;16.63;;;3.60;97.50;;;;;;4983827;28;20246;-81
2022/12/04 01:32:13;;;;;;;23.77;16.53;;;3.80;97.50;;;;;;4986281;28;20218;-82
2022/12/04 01:34:38;;;;;;;24.37;16.23;;;3.80;97.10;;;;;;4986282;28;20209;-82
2022/12/04 01:37:04;;;;;;;23.77;16.63;;;3.80;96.60;;;;;;4986913;28;20250;-80
2022/12/04 01:39:30;;;;;;;22.97;15.77;;;3.70;97.30;;;;;;4985933;28;20587;-80
2022/12/04 01:41:56;;;;;;;23.27;16.10;;;3.60;97.70;;;;;;4985992;28;20621;-81
2022/12/04 01:44:24;;;;;;;23.10;15.83;;;3.60;97.40;;;;;;4986491;28;20190;-82
2022/12/04 01:46:52;;;;;;;22.60;15.80;;;3.60;97.70;;;;;;4986421;28;20223;-81
2022/12/04 01:49:41;;;;;;;22.93;15.77;;;3.60;98.40;;;;;;4986974;28;20210;-82
2022/12/04 01:52:16;;;;;;;20.83;15.37;;;3.60;97.50;;;;;;4988169;28;20186;-82
2022/12/04 01:54:46;;;;;;;21.57;15.73;;;3.70;97.90;;;;;;4981582;28;20267;-83
2022/12/04 01:57:24;;;;;;;18.93;14.53;;;3.70;97.90;;;;;;4986733;28;20183;-82
2022/12/04 01:59:56;;;;;;;20.23;15.13;;;3.70;98.00;;;;;;4985573;28;20195;-81
2022/12/04 02:02:30;;;;;;;21.80;16.10;;;3.70;98.20;;;;;;4983755;28;20214;-82
2022/12/04 02:04:56;;;;;;;21.73;15.33;;;3.70;98.20;;;;;;4986220;28;20237;-81
2022/12/04 02:07:22;;;;;;;20.70;13.83;;;3.70;98.10;;;;;;4985762;28;20226;-81
2022/12/04 02:09:54;;;;;;;22.60;14.97;;;3.70;98.70;;;;;;4986023;28;20191;-81
2022/12/04 02:12:42;;;;;;;20.00;14.70;;;3.60;98.40;;;;;;4984442;28;20207;-81
2022/12/04 02:15:25;;;;;;;20.57;14.63;;;3.60;98.90;;;;;;4983183;28;20211;-81
2022/12/04 02:18:19;;;;;;;19.70;15.07;;;3.60;98.70;;;;;;4985608;28;20191;-82
2022/12/04 02:20:50;;;;;;;20.43;14.40;;;3.60;98.90;;;;;;4968497;28;20223;-81
2022/12/04 02:23:28;;;;;;;18.60;15.00;;;3.70;99.60;;;;;;4985027;28;20282;-83
2022/12/04 02:26:31;;;;;;;19.07;14.17;;;3.70;98.50;;;;;;4981708;28;20178;-81
2022/12/04 02:29:29;;;;;;;19.13;14.33;;;3.70;98.20;;;;;;4983002;28;20386;-81
2022/12/04 02:32:14;;;;;;;19.17;13.63;;;3.60;99.00;;;;;;4981397;28;20211;-83
2022/12/04 02:34:42;;;;;;;18.57;13.83;;;3.60;99.40;;;;;;4981791;28;20453;-83
2022/12/04 02:37:13;;;;;;;18.53;13.93;;;3.60;98.70;;;;;;4985457;28;20187;-82
2022/12/04 02:39:41;;;;;;;18.80;14.20;;;3.70;98.20;;;;;;4984523;28;20217;-80
2022/12/04 02:42:23;;;;;;;17.10;13.37;;;3.70;97.80;;;;;;4985858;28;20201;-82
2022/12/04 02:45:13;;;;;;;19.17;14.27;;;3.70;97.80;;;;;;4974588;28;20202;-80
2022/12/04 02:47:41;;;;;;;22.13;15.23;;;3.70;97.70;;;;;;4972119;28;20237;-81
2022/12/04 02:50:14;;;;;;;20.13;14.87;;;3.70;97.90;;;;;;4985729;28;20183;-81
2022/12/04 02:53:13;;;;;;;19.27;14.67;;;3.70;98.20;;;;;;4983991;28;20211;-82
2022/12/04 02:55:43;;;;;;;16.90;12.73;;;3.70;98.40;;;;;;4985130;28;20183;-82
2022/12/04 02:58:25;;;;;;;19.80;14.73;;;3.70;98.50;;;;;;4983726;28;20199;-81
2022/12/04 03:00:53;;;;;;;19.77;14.90;;;3.70;98.00;;;;;;4981924;28;20573;-81
2022/12/04 03:03:28;;;;;;;20.77;14.33;;;3.60;98.10;;;;;;4985653;28;20203;-82
2022/12/04 03:06:06;;;;;;;18.53;13.73;;;3.60;98.00;;;;;;4984716;28;20249;-82
2022/12/04 03:08:38;;;;;;;18.93;14.13;;;3.60;98.50;;;;;;4985393;28;20183;-81
2022/12/04 03:11:04;;;;;;;21.07;14.60;;;3.60;98.30;;;;;;4978081;28;20193;-84
2022/12/04 03:13:57;;;;;;;18.93;13.83;;;3.70;97.80;;;;;;4991627;28;20232;-83
2022/12/04 03:16:28;;;;;;;18.93;13.07;;;3.70;97.70;;;;;;4991972;28;20270;-81
2022/12/04 03:19:05;;;;;;;17.57;13.97;;;3.70;97.80;;;;;;4991059;28;20264;-81
2022/12/04 03:21:37;;;;;;;17.53;13.20;;;3.70;97.00;;;;;;4991668;28;20212;-81
2022/12/04 03:24:18;;;;;;;18.93;13.77;;;3.60;97.30;;;;;;4988298;28;20214;-83
2022/12/04 03:26:49;;;;;;;20.27;14.73;;;3.60;97.80;;;;;;5000136;28;20210;-84
2022/12/04 03:29:34;;;;;;;18.07;13.33;;;3.60;98.00;;;;;;4991920;28;20209;-82
2022/12/04 03:32:05;;;;;;;18.83;13.03;;;3.70;97.60;;;;;;4980439;28;20262;-83
2022/12/04 03:35:03;;;;;;;17.53;12.73;;;3.70;97.00;;;;;;4999339;28;20183;-82
2022/12/04 03:37:47;;;;;;;16.87;12.77;;;3.70;97.30;;;;;;4991408;28;20186;-83
2022/12/04 03:40:32;;;;;;;17.60;13.47;;;3.70;96.90;;;;;;4991624;28;20210;-82
2022/12/04 03:43:18;;;;;;;15.67;12.80;;;3.60;96.90;;;;;;4984860;28;20226;-82
2022/12/04 03:45:53;;;;;;;17.70;12.50;;;3.70;97.30;;;;;;4991937;28;20630;-83
2022/12/04 03:48:21;;;;;;;18.07;12.90;;;3.60;97.30;;;;;;4987515;28;20707;-82
2022/12/04 03:51:11;;;;;;;17.97;12.87;;;3.60;97.30;;;;;;4991461;28;20191;-84
2022/12/04 03:53:46;;;;;;;16.87;12.67;;;3.60;97.60;;;;;;4992734;28;20227;-83
2022/12/04 03:56:26;;;;;;;18.40;12.93;;;3.60;97.30;;;;;;4991720;28;20187;-82
2022/12/04 03:58:57;;;;;;;15.50;12.50;;;3.50;97.70;;;;;;4991398;28;20188;-82
2022/12/04 04:01:34;;;;;;;16.47;11.97;;;3.50;98.20;;;;;;4992024;28;20226;-81
2022/12/04 04:04:02;;;;;;;16.77;12.50;;;3.60;98.50;;;;;;4999077;28;20202;-82
2022/12/04 04:06:36;;;;;;;17.03;12.73;;;3.60;98.40;;;;;;4990371;28;20202;-81
2022/12/04 04:09:09;;;;;;;16.50;12.37;;;3.60;97.60;;;;;;4991271;28;20189;-83
2022/12/04 04:11:48;;;;;;;15.03;12.17;;;3.60;96.90;;;;;;4992151;28;20255;-83
2022/12/04 04:25:37;;;;;;;15.57;12.77;;;3.70;96.40;;;;;;4993621;28;20249;-82
2022/12/04 04:28:03;;;;;;;17.27;13.37;;;3.70;96.70;;;;;;4988628;28;20292;-82
2022/12/04 04:30:31;;;;;;;16.27;13.03;;;3.60;96.90;;;;;;4990881;28;20847;-84
2022/12/04 04:33:02;;;;;;;16.37;12.20;;;3.60;97.90;;;;;;4992319;28;20233;-80
2022/12/04 04:35:56;;;;;;;16.73;12.70;;;3.60;97.80;;;;;;4990557;28;20187;-82
2022/12/04 04:38:37;;;;;;;16.43;12.87;;;3.60;96.60;;;;;;4987912;28;20183;-83
2022/12/04 04:41:39;;;;;;;18.30;12.97;;;3.70;96.40;;;;;;4977324;28;20198;-82
2022/12/04 04:44:15;;;;;;;15.73;12.27;;;3.70;96.40;;;;;;4988962;28;20214;-81
2022/12/04 04:46:55;;;;;;;16.83;12.77;;;3.70;96.20;;;;;;4987250;28;20233;-80
2022/12/04 04:49:25;;;;;;;15.33;12.67;;;3.60;97.00;;;;;;4987056;28;20303;-82
2022/12/04 04:51:52;;;;;;;17.97;13.90;;;3.60;97.20;;;;;;4987665;28;20266;-82
2022/12/04 04:54:18;;;;;;;17.30;13.30;;;3.50;97.60;;;;;;4990624;28;20313;-82
2022/12/04 04:56:45;;;;;;;16.07;12.60;;;3.50;97.60;;;;;;4987767;28;20195;-82
2022/12/04 04:59:12;;;;;;;14.93;13.30;;;3.50;97.60;;;;;;4987667;28;20259;-82
2022/12/04 05:01:40;;;;;;;16.37;12.97;;;3.50;98.50;;;;;;4987385;28;20219;-82
2022/12/04 05:04:06;;;;;;;16.70;13.07;;;3.60;97.60;;;;;;4989877;28;20211;-83
2022/12/04 05:06:32;;;;;;;16.13;12.43;;;3.60;96.90;;;;;;4986464;28;20221;-82
2022/12/04 05:08:58;;;;;;;16.60;13.00;;;3.60;97.10;;;;;;4987208;28;20207;-81
2022/12/04 05:11:24;;;;;;;16.17;12.83;;;3.70;96.90;;;;;;4987072;28;20190;-83
2022/12/04 05:13:50;;;;;;;14.97;11.87;;;3.60;97.30;;;;;;4987717;28;20210;-82
2022/12/04 05:16:16;;;;;;;16.37;12.47;;;3.60;97.70;;;;;;4982348;28;20203;-83
2022/12/04 05:21:26;;;;;;;17.17;12.60;;;3.70;97.30;;;;;;4976989;28;20197;-82
2022/12/04 05:23:52;;;;;;;15.37;12.30;;;3.70;96.70;;;;;;4985356;28;20274;-83
2022/12/04 05:26:18;;;;;;;14.43;11.97;;;3.70;97.00;;;;;;4985810;28;20343;-82
2022/12/04 05:28:44;;;;;;;14.07;11.97;;;3.70;97.40;;;;;;4988333;28;20187;-82
2022/12/04 05:31:09;;;;;;;14.70;10.77;;;3.80;96.60;;;;;;4985742;28;20255;-83
2022/12/04 05:33:35;;;;;;;14.27;11.73;;;3.80;96.60;;;;;;4987198;28;20215;-82
2022/12/04 05:36:04;;;;;;;17.27;11.97;;;3.70;96.40;;;;;;4987908;28;20190;-84
2022/12/04 05:38:31;;;;;;;15.20;11.97;;;3.70;96.60;;;;;;4987184;28;20194;-82
2022/12/04 05:41:04;;;;;;;17.33;12.33;;;3.70;96.80;;;;;;4986818;28;20191;-84
2022/12/04 05:43:32;;;;;;;16.80;12.80;;;3.60;97.30;;;;;;4983033;28;20218;-82
2022/12/04 05:46:05;;;;;;;15.87;12.50;;;3.60;97.40;;;;;;4986607;28;20187;-83
2022/12/04 05:48:31;;;;;;;14.10;12.23;;;3.70;97.90;;;;;;4982765;28;20194;-81
2022/12/04 05:50:57;;;;;;;13.07;10.13;;;3.60;98.10;;;;;;4969471;28;20882;-83
2022/12/04 05:53:23;;;;;;;15.50;12.40;;;3.60;99.20;;;;;;4986001;28;20290;-84
2022/12/04 05:56:00;;;;;;;14.73;11.97;;;3.80;97.80;;;;;;4986897;28;20187;-83
2022/12/04 05:58:26;;;;;;;14.17;11.60;;;3.80;97.20;;;;;;4986389;28;20241;-83
2022/12/04 06:00:52;;;;;;;15.10;12.47;;;3.80;96.80;;;;;;4986300;28;20186;-81
2022/12/04 06:03:18;;;;;;;13.13;11.37;;;3.90;96.60;;;;;;4984995;28;20671;-83
2022/12/04 06:05:43;;;;;;;16.13;12.50;;;3.90;95.90;;;;;;4986365;28;20190;-80
2022/12/04 06:08:09;;;;;;;17.17;11.53;;;3.90;96.40;;;;;;4984718;28;20198;-82
2022/12/04 06:10:35;;;;;;;14.73;11.27;;;3.90;96.40;;;;;;4981347;28;20807;-81
2022/12/04 06:13:01;;;;;;;17.40;11.33;;;3.80;97.00;;;;;;4986140;28;20211;-82
2022/12/04 06:15:27;;;;;;;14.47;11.47;;;3.60;98.20;;;;;;4982840;28;20246;-81
2022/12/04 06:17:52;;;;;;;14.20;11.47;;;3.80;97.30;;;;;;4982915;28;20829;-81
2022/12/04 06:20:18;;;;;;;16.63;12.07;;;3.70;97.30;;;;;;4981696;28;20195;-84
2022/12/04 06:22:43;;;;;;;16.87;11.73;;;3.80;97.50;;;;;;4982108;28;20214;-82
2022/12/04 06:25:09;;;;;;;15.13;11.60;;;3.80;97.80;;;;;;4985430;28;20195;-83
2022/12/04 06:27:36;;;;;;;14.83;11.27;;;3.80;98.30;;;;;;4989632;28;20238;-82
2022/12/04 06:30:02;;;;;;;16.73;11.70;;;3.80;97.30;;;;;;4983332;28;20190;-81
2022/12/04 06:32:28;;;;;;;13.77;11.83;;;3.80;97.30;;;;;;4985877;28;20289;-82
2022/12/04 06:34:54;;;;;;;13.77;11.03;;;3.90;97.10;;;;;;4986195;28;20183;-83
2022/12/04 06:37:22;;;;;;;16.63;11.97;;;3.80;97.80;;;;;;4985870;28;20187;-83
2022/12/04 06:39:48;;;;;;;14.87;11.90;;;3.80;98.20;;;;;;4975633;28;20199;-82
2022/12/04 06:42:14;;;;;;;15.80;12.77;;;3.80;97.90;;;;;;4985333;28;20247;-82
2022/12/04 06:44:40;;;;;;;14.20;10.87;;;3.90;97.00;;;;;;4986510;28;20255;-81
2022/12/04 06:47:06;;;;;;;15.50;12.30;;;3.80;97.50;;;;;;4985015;28;20235;-81
2022/12/04 06:49:32;;;;;;;14.60;11.77;;;3.80;97.80;;;;;;4985690;28;20266;-82
2022/12/04 06:51:58;;;;;;;14.57;11.47;;;3.90;97.00;;;;;;4985145;28;20759;-81
2022/12/04 06:54:24;;;;;;;15.67;11.30;;;3.80;97.00;;;;;;4981240;28;20684;-82
2022/12/04 06:56:50;;;;;;;15.77;12.27;;;3.90;97.50;;;;;;4986948;28;20559;-82
2022/12/04 06:59:16;;;;;;;14.43;11.80;;;3.80;97.10;;;;;;4986093;28;20728;-82
2022/12/04 07:01:42;;;;;;;14.63;12.47;;;3.80;97.80;;;;;;4985247;28;20518;-81
2022/12/04 07:04:08;;;;;;;16.40;12.57;;;3.80;97.60;;;;;;4984320;28;20704;-81
2022/12/04 07:06:35;;;;;;;18.17;14.73;;;3.80;97.60;;;;;;4984915;28;20230;-81
2022/12/04 07:09:08;;;;;;;17.77;13.40;;;3.80;98.20;;;;;;4985668;28;20194;-81
2022/12/04 07:11:34;;;;;;;17.87;12.53;;;3.70;98.30;;;;;;4984240;28;20285;-82
2022/12/04 07:14:00;;;;;;;15.83;12.27;;;3.70;98.60;;;;;;4984319;28;20207;-82
2022/12/04 07:16:27;;;;;;;16.50;11.53;;;3.70;98.70;;;;;;4983048;28;20205;-82
2022/12/04 07:18:53;;;;;;;15.47;11.73;;;3.80;98.70;;;;;;4985212;28;20222;-77
2022/12/04 07:21:21;;;;;;;16.07;12.17;;;3.80;98.70;;;;;;4988265;28;20186;-81
2022/12/04 07:23:56;;;;;;;15.57;12.70;;;3.80;98.20;;;;;;4980606;28;20222;-82
2022/12/04 07:26:22;;;;;;;17.03;12.53;;;3.90;98.10;;;;;;4982278;28;20221;-81
2022/12/04 07:28:48;;;;;;;16.20;13.03;;;3.80;98.40;;;;;;4985294;28;20179;-81
2022/12/04 07:31:17;;;;;;;16.50;11.80;;;3.90;97.70;;;;;;4986931;28;20194;-81
2022/12/04 07:33:43;;;;;;;14.53;11.93;;;3.90;97.70;;;;;;4986354;28;20211;-81
2022/12/04 07:36:12;;;;;;;15.63;12.40;;;3.90;97.80;;;;;;4984212;28;20195;-81
2022/12/04 07:38:39;;;;;;;15.93;11.47;;;3.90;98.00;;;;;;4985163;28;20194;-83
2022/12/04 07:41:06;;;;;;;15.03;12.33;;;3.90;98.80;;;;;;4982683;28;20203;-82
2022/12/04 07:43:32;;;;;;;15.60;13.13;;;3.90;98.90;;;;;;4984886;28;20331;-83
2022/12/04 07:46:03;;;;;;;14.67;12.03;;;3.90;98.80;;;;;;4984920;28;20206;-80
2022/12/04 07:48:29;;;;;;;18.37;12.83;;;4.00;98.70;;;;;;4984971;28;20187;-82
2022/12/04 07:51:25;;;;;;;16.13;13.00;;;4.00;98.40;;;;;;4984197;28;20187;-81
2022/12/04 07:53:52;;;;;;;17.83;13.20;;;4.10;97.30;;;;;;4980277;28;20214;-81
2022/12/04 07:56:18;;;;;;;16.53;12.23;;;4.00;97.40;;;;;;4984421;28;20183;-81
2022/12/04 07:58:44;;;;;;;14.73;12.23;;;4.10;98.20;;;;;;4984601;28;20191;-81
2022/12/04 08:01:12;;;;;;;16.00;13.83;;;4.10;97.80;;;;;;4988747;28;20624;-81
2022/12/04 08:03:42;;;;;;;16.37;13.67;;;4.10;97.90;;;;;;4994695;28;20266;-81
2022/12/04 08:06:08;;;;;;;20.27;14.37;;;4.10;98.10;;;;;;4991600;28;20198;-83
2022/12/04 08:08:35;;;;;;;17.33;13.70;;;4.10;97.90;;;;;;5001003;28;20183;-83
2022/12/04 08:11:08;;;;;;;16.53;13.63;;;4.10;98.10;;;;;;5001114;28;20179;-84
2022/12/04 08:13:34;;;;;;;15.10;12.03;;;4.00;98.00;;;;;;5000110;28;20202;-84
2022/12/04 08:16:06;;;;;;;17.07;13.07;;;4.00;98.80;;;;;;4998467;28;20262;-83
2022/12/04 08:18:33;;;;;;;19.50;12.73;;;4.00;99.10;;;;;;4979345;28;20294;-81
2022/12/04 08:21:10;;;;;;;16.37;13.33;;;4.00;99.50;;;;;;4981296;28;20650;-82
2022/12/04 08:23:38;;;;;;;17.80;13.73;;;4.10;99.20;;;;;;4987185;28;20409;-81
2022/12/04 08:26:04;;;;;;;15.13;12.83;;;4.10;98.50;;;;;;4984638;28;20198;-83
2022/12/04 08:28:31;;;;;;;15.63;13.40;;;4.10;99.00;;;;;;4984890;28;20277;-81
2022/12/04 08:31:09;;;;;;;16.27;12.43;;;4.10;99.30;;;;;;4984795;28;20190;-82
2022/12/04 08:33:35;;;;;;;17.20;13.00;;;4.10;99.30;;;;;;4983885;28;20226;-81
2022/12/04 08:36:05;;;;;;;15.07;13.10;;;4.10;99.10;;;;;;4982514;28;20246;-82
2022/12/04 08:38:30;;;;;;;18.47;13.23;;;4.10;98.70;;;;;;4978167;28;20257;-82
2022/12/04 08:41:00;;;;;;;15.70;12.77;;;4.10;98.90;;;;;;4977281;28;20293;-82
2022/12/04 08:43:26;;;;;;;17.17;14.30;;;4.10;99.10;;;;;;4977836;28;20564;-83
2022/12/04 08:46:00;;;;;;;18.07;14.77;;;4.10;99.60;;;;;;4977051;28;20218;-82
2022/12/04 08:48:27;;;;;;;19.80;13.83;;;4.10;99.40;;;;;;4978168;28;20183;-82
2022/12/04 08:50:53;;;;;;;17.30;14.40;;;4.00;99.90;;;;;;4978613;28;20266;-82
2022/12/04 08:53:19;;;;;;;19.13;15.23;;;4.10;99.90;;;;;;4978465;28;20219;-83
2022/12/04 08:55:45;;;;;;;16.17;12.77;;;4.10;99.80;;;;;;4976960;28;20190;-83
2022/12/04 08:58:11;;;;;;;17.63;13.83;;;4.10;99.30;;;;;;4978148;28;20215;-84
2022/12/04 09:00:36;;;;;;;15.93;12.77;;;4.10;99.70;;;;;;4980261;28;20789;-81
2022/12/04 09:03:02;;;;;;;15.47;10.90;;;4.20;99.00;;;;;;4984110;28;20787;-83
2022/12/04 09:05:29;;;;;;;16.20;12.83;;;4.30;99.60;;;;;;4985181;28;20381;-83
2022/12/04 09:07:55;;;;;;;18.97;14.10;;;4.30;99.70;;;;;;4981785;28;20223;-83
2022/12/04 09:10:21;;;;;;;18.03;14.60;;;4.20;99.20;;;;;;4977197;28;20251;-83
2022/12/04 09:12:46;;;;;;;15.63;13.83;;;4.10;99.90;;;;;;4987655;28;20217;-82
2022/12/04 09:15:12;;;;;;;19.90;15.90;;;4.30;99.90;;;;;;4986034;28;20203;-82
2022/12/04 09:17:38;;;;;;;20.23;15.67;;;4.20;99.60;;;;;;4985647;28;20187;-85
2022/12/04 09:20:06;;;;;;;18.30;15.17;;;4.20;99.70;;;;;;4987124;28;20191;-83
2022/12/04 09:22:35;;;;;;;16.20;14.47;;;4.30;99.90;;;;;;4975899;28;20211;-82
2022/12/04 09:25:02;;;;;;;19.40;14.07;;;4.40;99.00;;;;;;4973900;28;20226;-83
2022/12/04 09:27:28;;;;;;;18.23;13.67;;;4.50;98.40;;;;;;4966574;28;20230;-84
2022/12/04 09:29:53;;;;;;;15.77;13.53;;;4.50;98.80;;;;;;4977753;28;20229;-84
2022/12/04 09:32:19;;;;;;;18.53;13.87;;;4.50;98.50;;;;;;4977938;28;20778;-84
2022/12/04 09:34:47;;;;;;;20.17;14.77;;;4.40;99.00;;;;;;4977843;28;20343;-82
2022/12/04 09:37:12;;;;;;;16.67;14.40;;;4.50;98.70;;;;;;4979168;28;20210;-82
2022/12/04 09:39:38;;;;;;;15.87;13.17;;;4.50;97.90;;;;;;4979706;28;20191;-83
2022/12/04 09:42:31;;;;;;;18.20;14.83;;;4.40;97.20;;;;;;4978444;28;20199;-82
2022/12/04 09:45:01;;;;;;;18.23;13.27;;;4.40;98.30;;;;;;4970070;28;20194;-83
2022/12/04 09:47:45;;;;;;;15.87;12.17;;;4.40;98.80;;;;;;4980668;28;20221;-82
2022/12/04 09:50:21;;;;;;;18.97;14.03;;;4.40;99.20;;;;;;4976675;28;20639;-82
2022/12/04 09:53:18;;;;;;;17.10;13.67;;;4.40;98.80;;;;;;4981610;28;20202;-82
2022/12/04 09:56:00;;;;;;;20.00;14.13;;;4.50;98.80;;;;;;4981428;28;20199;-83
2022/12/04 09:58:45;;;;;;;17.97;14.10;;;4.50;98.10;;;;;;4979677;28;20529;-83
2022/12/04 10:01:39;;;;;;;18.57;14.87;;;4.40;98.80;;;;;;4969856;28;20233;-84
2022/12/04 10:04:04;;;;;;;19.03;13.73;;;4.40;98.40;;;;;;4986065;28;20237;-82
2022/12/04 10:07:12;;;;;;;20.57;14.30;;;4.30;99.00;;;;;;4988329;28;20203;-83
2022/12/04 10:10:04;;;;;;;21.37;14.67;;;4.20;99.20;;;;;;4990646;28;20190;-82
2022/12/04 10:12:55;;;;;;;19.17;14.10;;;4.20;99.60;;;;;;4989429;28;20772;-85
2022/12/04 10:15:52;;;;;;;18.50;13.93;;;4.20;99.90;;;;;;4989260;28;20198;-82
2022/12/04 10:18:42;;;;;;;18.33;14.53;;;4.20;99.90;;;;;;4977605;28;20183;-82
2022/12/04 10:21:17;;;;;;;18.53;14.47;;;4.20;99.90;;;;;;4975928;28;20249;-81
2022/12/04 10:23:50;;;;;;;22.20;15.20;;;4.20;99.90;;;;;;4979839;28;20257;-82
2022/12/04 10:26:19;;;;;;;17.57;13.90;;;4.20;99.90;;;;;;4980186;28;20214;-82
2022/12/04 10:28:53;;;;;;;20.43;15.00;;;4.30;99.90;;;;;;4980335;28;20225;-82
2022/12/04 10:31:19;;;;;;;19.60;14.13;;;4.30;99.90;;;;;;4980400;28;20185;-82
2022/12/04 10:33:48;;;;;;;18.17;14.60;;;4.30;99.90;;;;;;4980032;28;20230;-80
2022/12/04 10:36:22;;;;;;;16.90;13.93;;;4.40;99.90;;;;;;4980219;28;20970;-83
2022/12/04 10:38:54;;;;;;;17.70;13.13;;;4.50;99.90;;;;;;4979142;28;20774;-84
2022/12/04 10:41:34;;;;;;;17.00;12.80;;;4.50;99.60;;;;;;4972095;28;20205;-82
2022/12/04 10:44:00;;;;;;;17.93;13.53;;;4.50;99.40;;;;;;4981005;28;20207;-82
2022/12/04 10:46:31;;;;;;;17.00;13.80;;;4.60;98.60;;;;;;4975701;28;20233;-81
2022/12/04 10:49:00;;;;;;;17.60;14.57;;;4.60;98.40;;;;;;4963196;28;20196;-82
2022/12/04 10:51:30;;;;;;;18.40;13.93;;;4.60;98.10;;;;;;4976760;28;20213;-82
2022/12/04 10:53:56;;;;;;;17.97;13.87;;;4.50;98.20;;;;;;4975708;28;20246;-80
2022/12/04 10:56:24;;;;;;;16.83;13.80;;;4.50;98.60;;;;;;4976033;28;20230;-83
2022/12/04 10:59:02;;;;;;;17.10;12.97;;;4.50;98.60;;;;;;4980208;28;20198;-82
2022/12/04 11:01:30;;;;;;;15.17;13.57;;;4.60;99.10;;;;;;4980132;28;20217;-82
2022/12/04 11:04:25;;;;;;;14.73;13.07;;;4.60;98.80;;;;;;4984661;28;20210;-83
2022/12/04 11:07:01;;;;;;;15.17;13.10;;;4.50;98.60;;;;;;4980269;28;20218;-82
2022/12/04 11:09:28;;;;;;;15.90;13.63;;;4.50;99.50;;;;;;4977641;28;20190;-82
2022/12/04 11:12:08;;;;;;;15.97;13.43;;;4.50;99.10;;;;;;4980446;28;20194;-82
2022/12/04 11:14:34;;;;;;;18.37;13.97;;;4.60;98.50;;;;;;4980353;28;20716;-83
2022/12/04 11:17:04;;;;;;;17.27;14.97;;;4.60;98.30;;;;;;4981473;28;20195;-84
2022/12/04 11:19:33;;;;;;;16.07;13.43;;;4.60;98.30;;;;;;4971438;28;20707;-83
2022/12/04 11:22:13;;;;;;;22.07;14.60;;;4.70;97.90;;;;;;4979833;28;20201;-83
2022/12/04 11:24:41;;;;;;;19.23;13.87;;;4.70;98.30;;;;;;4980027;28;20234;-83
2022/12/04 11:27:17;;;;;;;16.20;12.97;;;4.70;98.30;;;;;;4980400;28;20214;-84
2022/12/04 11:29:44;;;;;;;16.10;14.27;;;4.70;98.80;;;;;;4977800;28;20186;-83
2022/12/04 11:32:26;;;;;;;15.67;13.63;;;4.70;98.00;;;;;;4981862;28;20255;-84
2022/12/04 11:34:56;;;;;;;20.47;14.93;;;4.60;98.80;;;;;;4984052;28;20190;-81
2022/12/04 11:37:26;;;;;;;20.07;15.17;;;4.50;99.10;;;;;;4985206;28;20300;-82
2022/12/04 11:39:53;;;;;;;16.80;13.83;;;4.60;99.00;;;;;;4984685;28;20198;-82
2022/12/04 11:42:30;;;;;;;18.33;14.93;;;4.60;98.80;;;;;;4981040;28;20274;-82
2022/12/04 11:45:01;;;;;;;18.57;15.57;;;4.70;98.30;;;;;;4985677;28;20194;-82
2022/12/04 11:47:30;;;;;;;19.23;14.67;;;4.70;98.10;;;;;;4986596;28;20276;-83
2022/12/04 11:50:21;;;;;;;20.47;15.50;;;4.70;98.20;;;;;;4985881;28;20187;-81
2022/12/04 11:53:08;;;;;;;17.77;14.83;;;4.70;98.90;;;;;;4984506;28;20282;-82
2022/12/04 11:55:47;;;;;;;19.43;15.10;;;4.60;98.40;;;;;;4987315;28;20202;-81
2022/12/04 11:58:34;;;;;;;18.77;16.17;;;4.50;99.30;;;;;;4985531;28;20234;-82
2022/12/04 12:01:12;;;;;;;18.57;14.90;;;4.60;99.00;;;;;;4985792;28;20206;-82
2022/12/04 12:04:02;;;;;;;17.70;14.80;;;4.50;99.10;;;;;;4987524;28;20210;-83
2022/12/04 12:06:30;;;;;;;18.67;15.23;;;4.50;99.60;;;;;;4981777;28;20218;-82
2022/12/04 12:09:20;;;;;;;21.30;16.43;;;4.40;99.10;;;;;;4982111;28;20194;-82
2022/12/04 12:12:09;;;;;;;16.27;13.93;;;4.40;99.30;;;;;;4986364;28;20187;-83
2022/12/04 12:15:06;;;;;;;17.03;14.17;;;4.40;99.90;;;;;;4985202;28;20198;-82
2022/12/04 12:18:10;;;;;;;19.57;15.83;;;4.40;99.90;;;;;;4978191;28;20488;-81
2022/12/04 12:20:45;;;;;;;19.10;15.47;;;4.50;99.60;;;;;;4986854;28;20218;-82
2022/12/04 12:23:24;;;;;;;18.87;15.27;;;4.40;99.40;;;;;;4982780;28;20244;-81
2022/12/04 12:26:05;;;;;;;19.60;16.17;;;4.50;99.80;;;;;;4981078;28;20253;-82
2022/12/04 12:28:37;;;;;;;19.73;13.13;;;4.50;99.90;;;;;;4980730;28;20195;-82
2022/12/04 12:31:14;;;;;;;18.13;13.57;;;4.50;99.90;;;;;;4979299;28;20187;-82
2022/12/04 12:33:52;;;;;;;19.60;14.10;;;4.40;99.90;;;;;;4980497;28;20211;-82
2022/12/04 12:36:21;;;;;;;18.07;13.57;;;4.40;99.90;;;;;;4981729;28;20190;-82
2022/12/04 12:38:53;;;;;;;19.47;14.70;;;4.50;99.90;;;;;;4989069;28;20742;-83
2022/12/04 12:41:29;;;;;;;18.77;13.97;;;4.50;99.90;;;;;;4990453;28;20178;-82
2022/12/04 12:44:04;;;;;;;16.50;14.70;;;4.50;99.90;;;;;;4990708;28;20199;-83
2022/12/04 12:47:02;;;;;;;18.40;14.17;;;4.50;99.90;;;;;;4981851;28;20277;-82
2022/12/04 12:49:33;;;;;;;17.27;13.83;;;4.50;99.90;;;;;;4982744;28;20270;-82
2022/12/04 12:52:05;;;;;;;18.03;13.07;;;4.50;99.90;;;;;;4983317;28;20187;-81
2022/12/04 12:54:36;;;;;;;21.97;16.27;;;4.50;99.90;;;;;;4983373;28;20531;-81
2022/12/04 12:57:09;;;;;;;18.83;15.40;;;4.40;99.90;;;;;;4984070;28;20194;-82
2022/12/04 12:59:41;;;;;;;23.73;18.17;;;4.50;99.90;;;;;;4977865;28;20262;-82
2022/12/04 13:02:42;;;;;;;16.67;13.30;;;4.50;99.90;;;;;;4981576;28;20210;-82
2022/12/04 13:05:11;;;;;;;18.97;14.57;;;4.50;99.90;;;;;;4961012;29;20268;-81
2022/12/04 13:08:00;;;;;;;20.10;15.23;;;4.60;99.90;;;;;;4973968;28;20256;-82
2022/12/04 13:10:39;;;;;;;17.43;14.43;;;4.60;99.90;;;;;;4978142;28;20526;-79
2022/12/04 13:13:31;;;;;;;17.37;13.30;;;4.70;99.90;;;;;;4975468;28;20808;-81
2022/12/04 13:16:09;;;;;;;15.77;13.07;;;4.60;99.90;;;;;;4969643;28;20269;-82